sensor_id;sensor_type;location;lat;lon;timestamp;P1;durP1;ratioP1;P2;durP2;ratioP2
25615;SDS011;13482;48.234;13.006;2022-08-19T00:00:36;2.80;;;2.45;;
25615;SDS011;13482;48.234;13.006;2022-08-19T00:03:04;2.78;;;2.38;;
25615;SDS011;13482;48.234;13.006;2022-08-19T00:05:33;2.58;;;2.38;;
25615;SDS011;13482;48.234;13.006;2022-08-19T00:08:08;2.80;;;2.05;;
25615;SDS011;13482;48.234;13.006;2022-08-19T00:10:36;2.80;;;2.40;;
25615;SDS011;13482;48.234;13.006;2022-08-19T00:13:03;2.67;;;2.30;;
25615;SDS011;13482;48.234;13.006;2022-08-19T00:15:30;3.10;;;2.42;;
25615;SDS011;13482;48.234;13.006;2022-08-19T00:17:57;3.17;;;2.45;;
25615;SDS011;13482;48.234;13.006;2022-08-19T00:20:38;2.92;;;2.38;;
25615;SDS011;13482;48.234;13.006;2022-08-19T00:23:08;3.30;;;2.80;;
25615;SDS011;13482;48.234;13.006;2022-08-19T00:25:36;2.83;;;2.33;;
25615;SDS011;13482;48.234;13.006;2022-08-19T00:28:03;3.03;;;2.53;;
25615;SDS011;13482;48.234;13.006;2022-08-19T00:30:31;3.05;;;2.47;;
25615;SDS011;13482;48.234;13.006;2022-08-19T00:32:58;3.05;;;2.70;;
25615;SDS011;13482;48.234;13.006;2022-08-19T00:35:29;3.97;;;2.70;;
25615;SDS011;13482;48.234;13.006;2022-08-19T00:38:07;3.42;;;2.88;;
25615;SDS011;13482;48.234;13.006;2022-08-19T00:41:03;2.80;;;2.50;;
25615;SDS011;13482;48.234;13.006;2022-08-19T00:43:32;3.53;;;2.90;;
25615;SDS011;13482;48.234;13.006;2022-08-19T00:46:08;3.05;;;2.55;;
25615;SDS011;13482;48.234;13.006;2022-08-19T00:48:35;3.47;;;2.90;;
25615;SDS011;13482;48.234;13.006;2022-08-19T00:51:04;3.22;;;2.40;;
25615;SDS011;13482;48.234;13.006;2022-08-19T00:53:32;3.30;;;2.53;;
25615;SDS011;13482;48.234;13.006;2022-08-19T00:56:00;2.67;;;2.33;;
25615;SDS011;13482;48.234;13.006;2022-08-19T00:58:31;3.55;;;2.70;;
25615;SDS011;13482;48.234;13.006;2022-08-19T01:01:02;4.15;;;2.72;;
25615;SDS011;13482;48.234;13.006;2022-08-19T01:03:31;3.15;;;2.85;;
25615;SDS011;13482;48.234;13.006;2022-08-19T01:06:18;3.28;;;2.65;;
25615;SDS011;13482;48.234;13.006;2022-08-19T01:08:46;4.18;;;3.30;;
25615;SDS011;13482;48.234;13.006;2022-08-19T01:11:15;3.35;;;3.00;;
25615;SDS011;13482;48.234;13.006;2022-08-19T01:13:43;3.75;;;3.15;;
25615;SDS011;13482;48.234;13.006;2022-08-19T01:16:15;3.55;;;3.10;;
25615;SDS011;13482;48.234;13.006;2022-08-19T01:18:46;3.50;;;3.05;;
25615;SDS011;13482;48.234;13.006;2022-08-19T01:21:17;3.50;;;2.88;;
25615;SDS011;13482;48.234;13.006;2022-08-19T01:23:52;3.88;;;3.25;;
25615;SDS011;13482;48.234;13.006;2022-08-19T01:26:22;3.60;;;3.03;;
25615;SDS011;13482;48.234;13.006;2022-08-19T01:28:54;3.65;;;2.92;;
25615;SDS011;13482;48.234;13.006;2022-08-19T01:31:27;3.13;;;2.83;;
25615;SDS011;13482;48.234;13.006;2022-08-19T01:33:59;3.10;;;2.70;;
25615;SDS011;13482;48.234;13.006;2022-08-19T01:36:32;3.35;;;2.63;;
25615;SDS011;13482;48.234;13.006;2022-08-19T01:39:06;2.90;;;2.60;;
25615;SDS011;13482;48.234;13.006;2022-08-19T01:41:37;3.72;;;3.20;;
25615;SDS011;13482;48.234;13.006;2022-08-19T01:44:05;3.83;;;3.25;;
25615;SDS011;13482;48.234;13.006;2022-08-19T01:46:51;4.10;;;3.40;;
25615;SDS011;13482;48.234;13.006;2022-08-19T01:49:39;4.70;;;3.35;;
25615;SDS011;13482;48.234;13.006;2022-08-19T01:52:07;5.32;;;3.42;;
25615;SDS011;13482;48.234;13.006;2022-08-19T01:54:34;4.07;;;3.45;;
25615;SDS011;13482;48.234;13.006;2022-08-19T01:57:03;4.43;;;3.35;;
25615;SDS011;13482;48.234;13.006;2022-08-19T01:59:39;3.85;;;3.42;;
25615;SDS011;13482;48.234;13.006;2022-08-19T02:02:12;3.88;;;3.47;;
25615;SDS011;13482;48.234;13.006;2022-08-19T02:04:40;4.90;;;3.53;;
25615;SDS011;13482;48.234;13.006;2022-08-19T02:07:07;3.90;;;3.08;;
25615;SDS011;13482;48.234;13.006;2022-08-19T02:09:34;3.95;;;3.17;;
25615;SDS011;13482;48.234;13.006;2022-08-19T02:12:08;3.65;;;2.88;;
25615;SDS011;13482;48.234;13.006;2022-08-19T02:14:36;4.22;;;3.53;;
25615;SDS011;13482;48.234;13.006;2022-08-19T02:17:03;3.95;;;3.13;;
25615;SDS011;13482;48.234;13.006;2022-08-19T02:19:30;4.70;;;3.67;;
25615;SDS011;13482;48.234;13.006;2022-08-19T02:22:08;3.97;;;3.55;;
25615;SDS011;13482;48.234;13.006;2022-08-19T02:24:45;4.00;;;3.53;;
25615;SDS011;13482;48.234;13.006;2022-08-19T02:27:14;4.00;;;3.60;;
25615;SDS011;13482;48.234;13.006;2022-08-19T02:30:00;3.95;;;3.55;;
25615;SDS011;13482;48.234;13.006;2022-08-19T02:32:27;3.30;;;3.00;;
25615;SDS011;13482;48.234;13.006;2022-08-19T02:34:57;3.92;;;3.13;;
25615;SDS011;13482;48.234;13.006;2022-08-19T02:37:24;3.72;;;3.20;;
25615;SDS011;13482;48.234;13.006;2022-08-19T02:40:10;3.90;;;3.50;;
25615;SDS011;13482;48.234;13.006;2022-08-19T02:42:38;3.90;;;3.47;;
25615;SDS011;13482;48.234;13.006;2022-08-19T02:45:07;3.92;;;3.53;;
25615;SDS011;13482;48.234;13.006;2022-08-19T02:47:35;3.60;;;3.30;;
25615;SDS011;13482;48.234;13.006;2022-08-19T02:50:08;5.20;;;3.70;;
25615;SDS011;13482;48.234;13.006;2022-08-19T02:52:36;5.55;;;4.20;;
25615;SDS011;13482;48.234;13.006;2022-08-19T02:55:03;4.03;;;3.53;;
25615;SDS011;13482;48.234;13.006;2022-08-19T02:57:32;3.92;;;3.30;;
25615;SDS011;13482;48.234;13.006;2022-08-19T03:00:00;3.90;;;3.50;;
25615;SDS011;13482;48.234;13.006;2022-08-19T03:02:28;4.30;;;3.60;;
25615;SDS011;13482;48.234;13.006;2022-08-19T03:04:56;4.03;;;3.45;;
25615;SDS011;13482;48.234;13.006;2022-08-19T03:07:24;4.40;;;3.38;;
25615;SDS011;13482;48.234;13.006;2022-08-19T03:09:51;4.18;;;3.28;;
25615;SDS011;13482;48.234;13.006;2022-08-19T03:12:18;4.05;;;3.60;;
25615;SDS011;13482;48.234;13.006;2022-08-19T03:14:45;4.10;;;3.70;;
25615;SDS011;13482;48.234;13.006;2022-08-19T03:17:13;3.92;;;3.53;;
25615;SDS011;13482;48.234;13.006;2022-08-19T03:19:40;4.00;;;3.60;;
25615;SDS011;13482;48.234;13.006;2022-08-19T03:22:07;3.53;;;2.88;;
25615;SDS011;13482;48.234;13.006;2022-08-19T03:24:35;3.67;;;3.20;;
25615;SDS011;13482;48.234;13.006;2022-08-19T03:27:02;3.92;;;3.53;;
25615;SDS011;13482;48.234;13.006;2022-08-19T03:29:31;3.83;;;3.38;;
25615;SDS011;13482;48.234;13.006;2022-08-19T03:32:08;3.53;;;3.22;;
25615;SDS011;13482;48.234;13.006;2022-08-19T03:34:55;3.58;;;3.28;;
25615;SDS011;13482;48.234;13.006;2022-08-19T03:37:37;4.20;;;3.50;;
25615;SDS011;13482;48.234;13.006;2022-08-19T03:40:06;3.60;;;3.17;;
25615;SDS011;13482;48.234;13.006;2022-08-19T03:42:39;4.00;;;3.60;;
25615;SDS011;13482;48.234;13.006;2022-08-19T03:45:24;4.53;;;3.38;;
25615;SDS011;13482;48.234;13.006;2022-08-19T03:47:54;3.95;;;3.55;;
25615;SDS011;13482;48.234;13.006;2022-08-19T03:50:23;3.42;;;2.95;;
25615;SDS011;13482;48.234;13.006;2022-08-19T03:52:50;4.25;;;3.20;;
25615;SDS011;13482;48.234;13.006;2022-08-19T03:55:19;3.45;;;3.15;;
25615;SDS011;13482;48.234;13.006;2022-08-19T03:57:46;3.53;;;3.20;;
25615;SDS011;13482;48.234;13.006;2022-08-19T04:00:14;3.88;;;3.33;;
25615;SDS011;13482;48.234;13.006;2022-08-19T04:02:42;3.90;;;3.50;;
25615;SDS011;13482;48.234;13.006;2022-08-19T04:05:29;4.00;;;3.60;;
25615;SDS011;13482;48.234;13.006;2022-08-19T04:08:07;3.40;;;3.10;;
25615;SDS011;13482;48.234;13.006;2022-08-19T04:10:39;4.13;;;3.20;;
25615;SDS011;13482;48.234;13.006;2022-08-19T04:13:07;3.25;;;2.67;;
25615;SDS011;13482;48.234;13.006;2022-08-19T04:15:38;3.90;;;3.20;;
25615;SDS011;13482;48.234;13.006;2022-08-19T04:18:08;3.50;;;2.80;;
25615;SDS011;13482;48.234;13.006;2022-08-19T04:20:43;3.20;;;2.80;;
25615;SDS011;13482;48.234;13.006;2022-08-19T04:23:20;3.15;;;2.80;;
25615;SDS011;13482;48.234;13.006;2022-08-19T04:25:47;2.63;;;2.42;;
25615;SDS011;13482;48.234;13.006;2022-08-19T04:28:15;2.78;;;2.45;;
25615;SDS011;13482;48.234;13.006;2022-08-19T04:30:46;3.17;;;2.78;;
25615;SDS011;13482;48.234;13.006;2022-08-19T04:33:17;3.10;;;2.60;;
25615;SDS011;13482;48.234;13.006;2022-08-19T04:35:53;2.90;;;2.60;;
25615;SDS011;13482;48.234;13.006;2022-08-19T04:38:21;2.83;;;2.13;;
25615;SDS011;13482;48.234;13.006;2022-08-19T04:40:49;3.33;;;2.47;;
25615;SDS011;13482;48.234;13.006;2022-08-19T04:43:37;2.53;;;2.10;;
25615;SDS011;13482;48.234;13.006;2022-08-19T04:46:10;4.07;;;2.45;;
25615;SDS011;13482;48.234;13.006;2022-08-19T04:49:03;2.38;;;2.10;;
25615;SDS011;13482;48.234;13.006;2022-08-19T04:51:40;3.53;;;2.17;;
25615;SDS011;13482;48.234;13.006;2022-08-19T04:54:21;2.75;;;2.05;;
25615;SDS011;13482;48.234;13.006;2022-08-19T04:57:04;2.20;;;2.00;;
25615;SDS011;13482;48.234;13.006;2022-08-19T04:59:36;2.40;;;2.20;;
25615;SDS011;13482;48.234;13.006;2022-08-19T05:02:04;2.88;;;2.15;;
25615;SDS011;13482;48.234;13.006;2022-08-19T05:04:35;2.67;;;1.98;;
25615;SDS011;13482;48.234;13.006;2022-08-19T05:07:06;2.50;;;2.20;;
25615;SDS011;13482;48.234;13.006;2022-08-19T05:09:34;2.30;;;2.10;;
25615;SDS011;13482;48.234;13.006;2022-08-19T05:12:21;2.95;;;2.40;;
25615;SDS011;13482;48.234;13.006;2022-08-19T05:14:54;2.83;;;2.53;;
25615;SDS011;13482;48.234;13.006;2022-08-19T05:17:29;3.22;;;2.22;;
25615;SDS011;13482;48.234;13.006;2022-08-19T05:20:04;2.92;;;2.50;;
25615;SDS011;13482;48.234;13.006;2022-08-19T05:22:52;2.38;;;2.15;;
25615;SDS011;13482;48.234;13.006;2022-08-19T05:25:20;2.70;;;2.25;;
25615;SDS011;13482;48.234;13.006;2022-08-19T05:27:48;3.15;;;2.42;;
25615;SDS011;13482;48.234;13.006;2022-08-19T05:30:16;2.47;;;2.10;;
25615;SDS011;13482;48.234;13.006;2022-08-19T05:32:58;2.55;;;2.15;;
25615;SDS011;13482;48.234;13.006;2022-08-19T05:35:26;2.97;;;2.10;;
25615;SDS011;13482;48.234;13.006;2022-08-19T05:38:00;3.08;;;2.40;;
25615;SDS011;13482;48.234;13.006;2022-08-19T05:40:27;2.08;;;1.88;;
25615;SDS011;13482;48.234;13.006;2022-08-19T05:42:54;2.30;;;2.00;;
25615;SDS011;13482;48.234;13.006;2022-08-19T05:45:22;2.65;;;2.35;;
25615;SDS011;13482;48.234;13.006;2022-08-19T05:47:49;2.40;;;2.20;;
25615;SDS011;13482;48.234;13.006;2022-08-19T05:50:16;3.05;;;2.35;;
25615;SDS011;13482;48.234;13.006;2022-08-19T05:52:43;3.05;;;2.47;;
25615;SDS011;13482;48.234;13.006;2022-08-19T05:55:19;2.40;;;1.98;;
25615;SDS011;13482;48.234;13.006;2022-08-19T05:57:47;2.50;;;2.17;;
25615;SDS011;13482;48.234;13.006;2022-08-19T06:00:15;2.40;;;2.13;;
25615;SDS011;13482;48.234;13.006;2022-08-19T06:02:49;3.53;;;2.40;;
25615;SDS011;13482;48.234;13.006;2022-08-19T06:05:17;2.97;;;2.35;;
25615;SDS011;13482;48.234;13.006;2022-08-19T06:07:46;2.75;;;2.25;;
25615;SDS011;13482;48.234;13.006;2022-08-19T06:10:13;2.97;;;2.20;;
25615;SDS011;13482;48.234;13.006;2022-08-19T06:12:41;2.50;;;2.30;;
25615;SDS011;13482;48.234;13.006;2022-08-19T06:15:09;2.53;;;2.08;;
25615;SDS011;13482;48.234;13.006;2022-08-19T06:17:39;2.10;;;1.90;;
25615;SDS011;13482;48.234;13.006;2022-08-19T06:20:12;3.13;;;2.40;;
25615;SDS011;13482;48.234;13.006;2022-08-19T06:22:41;7.10;;;2.50;;
25615;SDS011;13482;48.234;13.006;2022-08-19T06:25:13;2.70;;;2.15;;
25615;SDS011;13482;48.234;13.006;2022-08-19T06:27:41;2.55;;;2.05;;
25615;SDS011;13482;48.234;13.006;2022-08-19T06:30:29;2.90;;;2.20;;
25615;SDS011;13482;48.234;13.006;2022-08-19T06:32:57;2.35;;;2.10;;
25615;SDS011;13482;48.234;13.006;2022-08-19T06:35:24;2.28;;;1.92;;
25615;SDS011;13482;48.234;13.006;2022-08-19T06:37:52;2.53;;;2.10;;
25615;SDS011;13482;48.234;13.006;2022-08-19T06:40:20;2.30;;;2.10;;
25615;SDS011;13482;48.234;13.006;2022-08-19T06:42:48;2.60;;;2.40;;
25615;SDS011;13482;48.234;13.006;2022-08-19T06:45:20;2.30;;;2.08;;
25615;SDS011;13482;48.234;13.006;2022-08-19T06:48:01;2.80;;;2.05;;
25615;SDS011;13482;48.234;13.006;2022-08-19T06:50:29;3.42;;;2.08;;
25615;SDS011;13482;48.234;13.006;2022-08-19T06:52:56;2.42;;;2.22;;
25615;SDS011;13482;48.234;13.006;2022-08-19T06:55:29;2.88;;;2.22;;
25615;SDS011;13482;48.234;13.006;2022-08-19T06:58:01;2.50;;;2.25;;
25615;SDS011;13482;48.234;13.006;2022-08-19T07:00:30;2.78;;;2.25;;
25615;SDS011;13482;48.234;13.006;2022-08-19T07:02:58;2.65;;;2.40;;
25615;SDS011;13482;48.234;13.006;2022-08-19T07:05:37;2.30;;;1.90;;
25615;SDS011;13482;48.234;13.006;2022-08-19T07:08:12;2.50;;;2.20;;
25615;SDS011;13482;48.234;13.006;2022-08-19T07:10:42;2.40;;;1.90;;
25615;SDS011;13482;48.234;13.006;2022-08-19T07:13:11;2.78;;;2.22;;
25615;SDS011;13482;48.234;13.006;2022-08-19T07:15:38;2.08;;;1.83;;
25615;SDS011;13482;48.234;13.006;2022-08-19T07:18:06;2.35;;;2.08;;
25615;SDS011;13482;48.234;13.006;2022-08-19T07:20:37;2.97;;;2.00;;
25615;SDS011;13482;48.234;13.006;2022-08-19T07:23:07;2.65;;;2.10;;
25615;SDS011;13482;48.234;13.006;2022-08-19T07:25:41;2.45;;;2.08;;
25615;SDS011;13482;48.234;13.006;2022-08-19T07:28:09;2.47;;;2.20;;
25615;SDS011;13482;48.234;13.006;2022-08-19T07:30:49;2.70;;;2.30;;
25615;SDS011;13482;48.234;13.006;2022-08-19T07:33:21;2.38;;;1.98;;
25615;SDS011;13482;48.234;13.006;2022-08-19T07:36:08;2.80;;;1.85;;
25615;SDS011;13482;48.234;13.006;2022-08-19T07:38:41;2.80;;;2.25;;
25615;SDS011;13482;48.234;13.006;2022-08-19T07:41:11;2.83;;;1.83;;
25615;SDS011;13482;48.234;13.006;2022-08-19T07:43:42;2.83;;;2.30;;
25615;SDS011;13482;48.234;13.006;2022-08-19T07:46:10;3.10;;;2.20;;
25615;SDS011;13482;48.234;13.006;2022-08-19T07:48:41;2.65;;;2.10;;
25615;SDS011;13482;48.234;13.006;2022-08-19T07:51:13;2.58;;;2.25;;
25615;SDS011;13482;48.234;13.006;2022-08-19T07:54:02;2.75;;;2.33;;
25615;SDS011;13482;48.234;13.006;2022-08-19T07:56:30;2.40;;;2.00;;
25615;SDS011;13482;48.234;13.006;2022-08-19T07:58:57;3.28;;;2.55;;
25615;SDS011;13482;48.234;13.006;2022-08-19T08:01:25;2.53;;;2.33;;
25615;SDS011;13482;48.234;13.006;2022-08-19T08:03:54;2.90;;;2.30;;
25615;SDS011;13482;48.234;13.006;2022-08-19T08:06:42;2.88;;;2.58;;
25615;SDS011;13482;48.234;13.006;2022-08-19T08:09:30;3.00;;;2.47;;
25615;SDS011;13482;48.234;13.006;2022-08-19T08:12:24;3.45;;;2.72;;
25615;SDS011;13482;48.234;13.006;2022-08-19T08:15:09;2.50;;;2.30;;
25615;SDS011;13482;48.234;13.006;2022-08-19T08:17:42;2.97;;;2.67;;
25615;SDS011;13482;48.234;13.006;2022-08-19T08:20:17;2.70;;;2.50;;
25615;SDS011;13482;48.234;13.006;2022-08-19T08:22:46;4.25;;;2.72;;
25615;SDS011;13482;48.234;13.006;2022-08-19T08:25:33;2.95;;;2.65;;
25615;SDS011;13482;48.234;13.006;2022-08-19T08:28:02;3.63;;;3.05;;
25615;SDS011;13482;48.234;13.006;2022-08-19T08:30:30;3.28;;;2.80;;
25615;SDS011;13482;48.234;13.006;2022-08-19T08:33:03;3.75;;;3.15;;
25615;SDS011;13482;48.234;13.006;2022-08-19T08:35:31;3.60;;;3.10;;
25615;SDS011;13482;48.234;13.006;2022-08-19T08:37:59;3.70;;;3.10;;
25615;SDS011;13482;48.234;13.006;2022-08-19T08:43:49;3.20;;;2.78;;
25615;SDS011;13482;48.234;13.006;2022-08-19T08:46:24;2.85;;;2.50;;
25615;SDS011;13482;48.234;13.006;2022-08-19T08:51:57;3.53;;;2.88;;
25615;SDS011;13482;48.234;13.006;2022-08-19T08:54:59;3.65;;;3.35;;
25615;SDS011;13482;48.234;13.006;2022-08-19T08:57:49;4.13;;;3.63;;
25615;SDS011;13482;48.234;13.006;2022-08-19T09:02:50;4.43;;;3.90;;
25615;SDS011;13482;48.234;13.006;2022-08-19T09:05:18;4.15;;;3.75;;
25615;SDS011;13482;48.234;13.006;2022-08-19T09:08:08;4.10;;;3.60;;
25615;SDS011;13482;48.234;13.006;2022-08-19T09:10:49;3.97;;;3.53;;
25615;SDS011;13482;48.234;13.006;2022-08-19T09:16:27;3.70;;;3.30;;
25615;SDS011;13482;48.234;13.006;2022-08-19T09:18:56;4.18;;;3.78;;
25615;SDS011;13482;48.234;13.006;2022-08-19T09:21:31;4.45;;;4.03;;
25615;SDS011;13482;48.234;13.006;2022-08-19T09:24:01;4.70;;;3.90;;
25615;SDS011;13482;48.234;13.006;2022-08-19T09:26:31;4.10;;;3.70;;
25615;SDS011;13482;48.234;13.006;2022-08-19T09:29:13;4.30;;;3.85;;
25615;SDS011;13482;48.234;13.006;2022-08-19T09:31:42;4.55;;;4.15;;
25615;SDS011;13482;48.234;13.006;2022-08-19T09:34:10;5.63;;;3.80;;
25615;SDS011;13482;48.234;13.006;2022-08-19T09:36:46;4.05;;;3.63;;
25615;SDS011;13482;48.234;13.006;2022-08-19T09:39:20;3.92;;;3.38;;
25615;SDS011;13482;48.234;13.006;2022-08-19T09:41:48;4.07;;;3.67;;
25615;SDS011;13482;48.234;13.006;2022-08-19T09:44:16;4.28;;;3.88;;
25615;SDS011;13482;48.234;13.006;2022-08-19T09:46:56;4.50;;;4.10;;
25615;SDS011;13482;48.234;13.006;2022-08-19T09:49:23;5.55;;;3.55;;
25615;SDS011;13482;48.234;13.006;2022-08-19T09:51:50;3.67;;;3.28;;
25615;SDS011;13482;48.234;13.006;2022-08-19T09:57:05;4.47;;;3.08;;
25615;SDS011;13482;48.234;13.006;2022-08-19T09:59:33;3.75;;;3.30;;
25615;SDS011;13482;48.234;13.006;2022-08-19T10:02:01;3.80;;;3.35;;
25615;SDS011;13482;48.234;13.006;2022-08-19T10:04:36;4.38;;;3.45;;
25615;SDS011;13482;48.234;13.006;2022-08-19T10:07:32;3.60;;;3.30;;
25615;SDS011;13482;48.234;13.006;2022-08-19T10:10:05;4.00;;;3.60;;
25615;SDS011;13482;48.234;13.006;2022-08-19T10:15:01;3.80;;;3.47;;
25615;SDS011;13482;48.234;13.006;2022-08-19T10:17:29;3.63;;;3.22;;
25615;SDS011;13482;48.234;13.006;2022-08-19T10:19:59;3.90;;;3.47;;
25615;SDS011;13482;48.234;13.006;2022-08-19T10:22:28;4.50;;;4.10;;
25615;SDS011;13482;48.234;13.006;2022-08-19T10:24:56;4.25;;;3.80;;
25615;SDS011;13482;48.234;13.006;2022-08-19T10:27:30;3.97;;;3.58;;
25615;SDS011;13482;48.234;13.006;2022-08-19T10:29:58;3.67;;;3.38;;
25615;SDS011;13482;48.234;13.006;2022-08-19T10:32:26;4.60;;;3.70;;
25615;SDS011;13482;48.234;13.006;2022-08-19T10:35:00;3.92;;;3.42;;
25615;SDS011;13482;48.234;13.006;2022-08-19T10:40:00;3.65;;;3.35;;
25615;SDS011;13482;48.234;13.006;2022-08-19T10:42:28;3.35;;;3.05;;
25615;SDS011;13482;48.234;13.006;2022-08-19T10:44:57;3.40;;;3.10;;
25615;SDS011;13482;48.234;13.006;2022-08-19T10:47:26;4.20;;;3.80;;
25615;SDS011;13482;48.234;13.006;2022-08-19T10:49:57;4.32;;;3.92;;
25615;SDS011;13482;48.234;13.006;2022-08-19T10:52:46;4.05;;;3.63;;
25615;SDS011;13482;48.234;13.006;2022-08-19T10:55:20;3.78;;;3.47;;
25615;SDS011;13482;48.234;13.006;2022-08-19T10:58:12;4.13;;;3.83;;
25615;SDS011;13482;48.234;13.006;2022-08-19T11:00:51;3.80;;;3.50;;
25615;SDS011;13482;48.234;13.006;2022-08-19T11:03:21;4.32;;;3.80;;
25615;SDS011;13482;48.234;13.006;2022-08-19T11:08:35;3.50;;;3.17;;
25615;SDS011;13482;48.234;13.006;2022-08-19T11:11:04;3.30;;;3.00;;
25615;SDS011;13482;48.234;13.006;2022-08-19T11:13:34;4.38;;;3.55;;
25615;SDS011;13482;48.234;13.006;2022-08-19T11:16:12;3.53;;;3.20;;
25615;SDS011;13482;48.234;13.006;2022-08-19T11:18:53;4.53;;;3.28;;
25615;SDS011;13482;48.234;13.006;2022-08-19T11:24:03;3.67;;;3.17;;
25615;SDS011;13482;48.234;13.006;2022-08-19T11:26:47;3.38;;;3.08;;
25615;SDS011;13482;48.234;13.006;2022-08-19T11:29:18;3.78;;;3.10;;
25615;SDS011;13482;48.234;13.006;2022-08-19T11:31:48;3.03;;;2.73;;
25615;SDS011;13482;48.234;13.006;2022-08-19T11:34:18;3.97;;;3.00;;
25615;SDS011;13482;48.234;13.006;2022-08-19T11:36:49;3.20;;;2.90;;
25615;SDS011;13482;48.234;13.006;2022-08-19T11:39:18;3.22;;;2.92;;
25615;SDS011;13482;48.234;13.006;2022-08-19T11:41:48;3.85;;;3.38;;
25615;SDS011;13482;48.234;13.006;2022-08-19T11:44:15;3.45;;;3.15;;
25615;SDS011;13482;48.234;13.006;2022-08-19T11:46:44;3.25;;;2.95;;
25615;SDS011;13482;48.234;13.006;2022-08-19T11:49:13;3.03;;;2.72;;
25615;SDS011;13482;48.234;13.006;2022-08-19T11:51:42;4.07;;;3.30;;
25615;SDS011;13482;48.234;13.006;2022-08-19T11:54:10;4.30;;;3.35;;
25615;SDS011;13482;48.234;13.006;2022-08-19T11:56:45;3.47;;;3.17;;
25615;SDS011;13482;48.234;13.006;2022-08-19T11:59:14;3.63;;;3.20;;
25615;SDS011;13482;48.234;13.006;2022-08-19T12:01:42;3.40;;;3.10;;
25615;SDS011;13482;48.234;13.006;2022-08-19T12:04:09;3.47;;;3.17;;
25615;SDS011;13482;48.234;13.006;2022-08-19T12:06:38;4.93;;;2.72;;
25615;SDS011;13482;48.234;13.006;2022-08-19T12:09:07;3.55;;;3.25;;
25615;SDS011;13482;48.234;13.006;2022-08-19T12:11:37;3.08;;;2.78;;
25615;SDS011;13482;48.234;13.006;2022-08-19T12:14:05;2.80;;;2.60;;
25615;SDS011;13482;48.234;13.006;2022-08-19T12:16:39;3.22;;;2.50;;
25615;SDS011;13482;48.234;13.006;2022-08-19T12:19:15;2.88;;;2.58;;
25615;SDS011;13482;48.234;13.006;2022-08-19T12:21:48;3.08;;;2.63;;
25615;SDS011;13482;48.234;13.006;2022-08-19T12:24:15;2.70;;;2.38;;
25615;SDS011;13482;48.234;13.006;2022-08-19T12:26:49;3.22;;;2.92;;
25615;SDS011;13482;48.234;13.006;2022-08-19T12:29:26;3.10;;;2.80;;
25615;SDS011;13482;48.234;13.006;2022-08-19T12:31:56;3.53;;;2.78;;
25615;SDS011;13482;48.234;13.006;2022-08-19T12:34:29;3.25;;;2.95;;
25615;SDS011;13482;48.234;13.006;2022-08-19T12:37:00;2.97;;;2.67;;
25615;SDS011;13482;48.234;13.006;2022-08-19T12:39:54;4.07;;;2.70;;
25615;SDS011;13482;48.234;13.006;2022-08-19T12:42:21;2.58;;;2.38;;
25615;SDS011;13482;48.234;13.006;2022-08-19T12:44:48;3.15;;;2.47;;
25615;SDS011;13482;48.234;13.006;2022-08-19T12:47:18;3.20;;;2.60;;
25615;SDS011;13482;48.234;13.006;2022-08-19T12:49:45;2.67;;;2.38;;
25615;SDS011;13482;48.234;13.006;2022-08-19T12:52:21;2.53;;;2.33;;
25615;SDS011;13482;48.234;13.006;2022-08-19T12:54:54;2.88;;;2.50;;
25615;SDS011;13482;48.234;13.006;2022-08-19T12:57:23;2.58;;;2.35;;
25615;SDS011;13482;48.234;13.006;2022-08-19T13:00:08;3.47;;;2.42;;
25615;SDS011;13482;48.234;13.006;2022-08-19T13:02:40;2.63;;;2.20;;
25615;SDS011;13482;48.234;13.006;2022-08-19T13:05:16;2.83;;;2.40;;
25615;SDS011;13482;48.234;13.006;2022-08-19T13:07:49;2.67;;;2.30;;
25615;SDS011;13482;48.234;13.006;2022-08-19T13:10:21;2.63;;;2.35;;
25615;SDS011;13482;48.234;13.006;2022-08-19T13:12:51;3.20;;;2.63;;
25615;SDS011;13482;48.234;13.006;2022-08-19T13:15:22;2.85;;;2.55;;
25615;SDS011;13482;48.234;13.006;2022-08-19T13:20:56;3.20;;;2.83;;
25615;SDS011;13482;48.234;13.006;2022-08-19T13:23:23;2.75;;;2.45;;
25615;SDS011;13482;48.234;13.006;2022-08-19T13:25:57;2.70;;;2.50;;
25615;SDS011;13482;48.234;13.006;2022-08-19T13:28:31;3.38;;;2.80;;
25615;SDS011;13482;48.234;13.006;2022-08-19T13:31:19;2.83;;;2.53;;
25615;SDS011;13482;48.234;13.006;2022-08-19T13:34:07;2.90;;;2.60;;
25615;SDS011;13482;48.234;13.006;2022-08-19T13:36:35;3.30;;;2.40;;
25615;SDS011;13482;48.234;13.006;2022-08-19T13:39:04;3.03;;;2.72;;
25615;SDS011;13482;48.234;13.006;2022-08-19T13:41:34;3.50;;;3.20;;
25615;SDS011;13482;48.234;13.006;2022-08-19T13:44:03;2.83;;;2.60;;
25615;SDS011;13482;48.234;13.006;2022-08-19T13:46:32;3.30;;;2.88;;
25615;SDS011;13482;48.234;13.006;2022-08-19T13:49:06;2.70;;;2.50;;
25615;SDS011;13482;48.234;13.006;2022-08-19T13:51:34;3.10;;;2.80;;
25615;SDS011;13482;48.234;13.006;2022-08-19T13:54:05;2.70;;;2.50;;
25615;SDS011;13482;48.234;13.006;2022-08-19T13:56:35;2.60;;;2.40;;
25615;SDS011;13482;48.234;13.006;2022-08-19T13:59:07;2.90;;;2.55;;
25615;SDS011;13482;48.234;13.006;2022-08-19T14:01:35;3.15;;;2.85;;
25615;SDS011;13482;48.234;13.006;2022-08-19T14:04:03;4.32;;;3.00;;
25615;SDS011;13482;48.234;13.006;2022-08-19T14:06:34;3.22;;;2.92;;
25615;SDS011;13482;48.234;13.006;2022-08-19T14:09:01;3.20;;;2.85;;
25615;SDS011;13482;48.234;13.006;2022-08-19T14:11:29;3.22;;;2.92;;
25615;SDS011;13482;48.234;13.006;2022-08-19T14:13:56;3.50;;;3.15;;
25615;SDS011;13482;48.234;13.006;2022-08-19T14:16:24;3.60;;;2.70;;
25615;SDS011;13482;48.234;13.006;2022-08-19T14:18:51;3.00;;;2.72;;
25615;SDS011;13482;48.234;13.006;2022-08-19T14:21:20;3.20;;;2.92;;
25615;SDS011;13482;48.234;13.006;2022-08-19T14:23:49;5.15;;;2.50;;
25615;SDS011;13482;48.234;13.006;2022-08-19T14:26:18;5.80;;;2.70;;
25615;SDS011;13482;48.234;13.006;2022-08-19T14:28:46;2.78;;;2.50;;
25615;SDS011;13482;48.234;13.006;2022-08-19T14:31:16;2.65;;;2.33;;
25615;SDS011;13482;48.234;13.006;2022-08-19T14:33:48;2.50;;;2.30;;
25615;SDS011;13482;48.234;13.006;2022-08-19T14:36:17;2.20;;;2.00;;
25615;SDS011;13482;48.234;13.006;2022-08-19T14:38:47;2.47;;;2.28;;
25615;SDS011;13482;48.234;13.006;2022-08-19T14:41:19;3.58;;;2.13;;
25615;SDS011;13482;48.234;13.006;2022-08-19T14:43:49;3.67;;;2.20;;
25615;SDS011;13482;48.234;13.006;2022-08-19T14:46:20;3.00;;;2.30;;
25615;SDS011;13482;48.234;13.006;2022-08-19T14:49:11;2.65;;;2.40;;
25615;SDS011;13482;48.234;13.006;2022-08-19T14:51:38;2.90;;;2.60;;
25615;SDS011;13482;48.234;13.006;2022-08-19T14:54:05;2.70;;;2.45;;
25615;SDS011;13482;48.234;13.006;2022-08-19T14:56:33;2.50;;;2.30;;
25615;SDS011;13482;48.234;13.006;2022-08-19T14:59:01;2.72;;;2.53;;
25615;SDS011;13482;48.234;13.006;2022-08-19T15:01:29;2.78;;;2.58;;
25615;SDS011;13482;48.234;13.006;2022-08-19T15:03:56;2.50;;;2.28;;
25615;SDS011;13482;48.234;13.006;2022-08-19T15:06:23;4.07;;;2.70;;
25615;SDS011;13482;48.234;13.006;2022-08-19T15:08:52;2.70;;;2.28;;
25615;SDS011;13482;48.234;13.006;2022-08-19T15:11:21;2.67;;;2.45;;
25615;SDS011;13482;48.234;13.006;2022-08-19T15:13:56;2.63;;;2.42;;
25615;SDS011;13482;48.234;13.006;2022-08-19T15:16:25;2.53;;;2.30;;
25615;SDS011;13482;48.234;13.006;2022-08-19T15:18:54;3.30;;;2.72;;
25615;SDS011;13482;48.234;13.006;2022-08-19T15:21:34;2.97;;;2.67;;
25615;SDS011;13482;48.234;13.006;2022-08-19T15:24:03;3.13;;;2.72;;
25615;SDS011;13482;48.234;13.006;2022-08-19T15:26:31;3.63;;;2.63;;
25615;SDS011;13482;48.234;13.006;2022-08-19T15:29:03;4.35;;;2.88;;